sensor_id;sensor_type;location;lat;lon;timestamp;P1;durP1;ratioP1;P2;durP2;ratioP2
25846;SDS011;13676;50.168;8.568;2023-04-06T00:01:24;6.78;;;4.10;;
25846;SDS011;13676;50.168;8.568;2023-04-06T00:03:49;6.90;;;3.92;;
25846;SDS011;13676;50.168;8.568;2023-04-06T00:06:14;6.65;;;4.03;;
25846;SDS011;13676;50.168;8.568;2023-04-06T00:08:40;8.40;;;4.28;;
25846;SDS011;13676;50.168;8.568;2023-04-06T00:11:06;6.05;;;4.05;;
25846;SDS011;13676;50.168;8.568;2023-04-06T00:13:31;6.55;;;3.47;;
25846;SDS011;13676;50.168;8.568;2023-04-06T00:15:57;5.97;;;3.47;;
25846;SDS011;13676;50.168;8.568;2023-04-06T00:18:22;6.85;;;3.72;;
25846;SDS011;13676;50.168;8.568;2023-04-06T00:20:47;5.35;;;3.30;;
25846;SDS011;13676;50.168;8.568;2023-04-06T00:23:13;6.43;;;3.80;;
25846;SDS011;13676;50.168;8.568;2023-04-06T00:25:38;4.93;;;3.78;;
25846;SDS011;13676;50.168;8.568;2023-04-06T00:28:03;6.68;;;4.90;;
25846;SDS011;13676;50.168;8.568;2023-04-06T00:30:29;7.15;;;4.65;;
25846;SDS011;13676;50.168;8.568;2023-04-06T00:32:54;7.72;;;4.03;;
25846;SDS011;13676;50.168;8.568;2023-04-06T00:35:20;6.63;;;3.67;;
25846;SDS011;13676;50.168;8.568;2023-04-06T00:37:46;12.10;;;3.90;;
25846;SDS011;13676;50.168;8.568;2023-04-06T00:40:12;5.60;;;3.37;;
25846;SDS011;13676;50.168;8.568;2023-04-06T00:42:37;6.32;;;4.40;;
25846;SDS011;13676;50.168;8.568;2023-04-06T00:45:03;6.72;;;4.80;;
25846;SDS011;13676;50.168;8.568;2023-04-06T00:47:29;6.80;;;4.43;;
25846;SDS011;13676;50.168;8.568;2023-04-06T00:49:54;6.90;;;4.50;;
25846;SDS011;13676;50.168;8.568;2023-04-06T00:52:20;6.97;;;4.25;;
25846;SDS011;13676;50.168;8.568;2023-04-06T00:54:46;7.97;;;4.75;;
25846;SDS011;13676;50.168;8.568;2023-04-06T00:57:12;6.18;;;4.22;;
25846;SDS011;13676;50.168;8.568;2023-04-06T00:59:38;8.27;;;4.95;;
25846;SDS011;13676;50.168;8.568;2023-04-06T01:02:04;7.53;;;4.50;;
25846;SDS011;13676;50.168;8.568;2023-04-06T01:04:29;7.72;;;4.60;;
25846;SDS011;13676;50.168;8.568;2023-04-06T01:06:55;7.93;;;4.18;;
25846;SDS011;13676;50.168;8.568;2023-04-06T01:09:20;6.43;;;4.30;;
25846;SDS011;13676;50.168;8.568;2023-04-06T01:11:47;7.18;;;4.75;;
25846;SDS011;13676;50.168;8.568;2023-04-06T01:14:12;7.72;;;4.88;;
25846;SDS011;13676;50.168;8.568;2023-04-06T01:16:37;9.57;;;4.97;;
25846;SDS011;13676;50.168;8.568;2023-04-06T01:19:07;10.77;;;5.05;;
25846;SDS011;13676;50.168;8.568;2023-04-06T01:21:36;7.03;;;4.93;;
25846;SDS011;13676;50.168;8.568;2023-04-06T01:24:02;6.95;;;4.53;;
25846;SDS011;13676;50.168;8.568;2023-04-06T01:26:28;5.57;;;4.22;;
25846;SDS011;13676;50.168;8.568;2023-04-06T01:28:54;7.93;;;4.82;;
25846;SDS011;13676;50.168;8.568;2023-04-06T01:31:20;7.32;;;4.93;;
25846;SDS011;13676;50.168;8.568;2023-04-06T01:33:46;8.48;;;4.53;;
25846;SDS011;13676;50.168;8.568;2023-04-06T01:36:11;7.57;;;4.75;;
25846;SDS011;13676;50.168;8.568;2023-04-06T01:38:37;8.40;;;5.15;;
25846;SDS011;13676;50.168;8.568;2023-04-06T01:41:02;8.63;;;4.55;;
25846;SDS011;13676;50.168;8.568;2023-04-06T01:43:28;7.75;;;4.95;;
25846;SDS011;13676;50.168;8.568;2023-04-06T01:45:53;9.65;;;5.13;;
25846;SDS011;13676;50.168;8.568;2023-04-06T01:48:18;6.80;;;4.57;;
25846;SDS011;13676;50.168;8.568;2023-04-06T01:50:44;11.15;;;5.22;;
25846;SDS011;13676;50.168;8.568;2023-04-06T01:53:12;5.63;;;4.00;;
25846;SDS011;13676;50.168;8.568;2023-04-06T01:55:37;6.50;;;4.60;;
25846;SDS011;13676;50.168;8.568;2023-04-06T01:58:03;8.23;;;5.25;;
25846;SDS011;13676;50.168;8.568;2023-04-06T02:00:28;9.80;;;5.55;;
25846;SDS011;13676;50.168;8.568;2023-04-06T02:02:53;6.32;;;4.43;;
25846;SDS011;13676;50.168;8.568;2023-04-06T02:05:19;9.20;;;4.93;;
25846;SDS011;13676;50.168;8.568;2023-04-06T02:07:45;6.35;;;4.40;;
25846;SDS011;13676;50.168;8.568;2023-04-06T02:10:11;6.75;;;4.35;;
25846;SDS011;13676;50.168;8.568;2023-04-06T02:12:37;6.88;;;4.18;;
25846;SDS011;13676;50.168;8.568;2023-04-06T02:15:03;7.13;;;4.00;;
25846;SDS011;13676;50.168;8.568;2023-04-06T02:17:29;6.00;;;4.13;;
25846;SDS011;13676;50.168;8.568;2023-04-06T02:19:54;7.55;;;4.53;;
25846;SDS011;13676;50.168;8.568;2023-04-06T02:22:19;5.65;;;3.75;;
25846;SDS011;13676;50.168;8.568;2023-04-06T02:24:45;8.48;;;4.00;;
25846;SDS011;13676;50.168;8.568;2023-04-06T02:27:11;6.15;;;3.97;;
25846;SDS011;13676;50.168;8.568;2023-04-06T02:29:37;6.97;;;3.85;;
25846;SDS011;13676;50.168;8.568;2023-04-06T02:32:02;5.72;;;3.88;;
25846;SDS011;13676;50.168;8.568;2023-04-06T02:34:28;5.85;;;4.03;;
25846;SDS011;13676;50.168;8.568;2023-04-06T02:36:54;6.65;;;4.07;;
25846;SDS011;13676;50.168;8.568;2023-04-06T02:39:20;6.78;;;4.28;;
25846;SDS011;13676;50.168;8.568;2023-04-06T02:41:45;8.30;;;4.53;;
25846;SDS011;13676;50.168;8.568;2023-04-06T02:44:10;6.75;;;4.60;;
25846;SDS011;13676;50.168;8.568;2023-04-06T02:46:36;7.63;;;4.43;;
25846;SDS011;13676;50.168;8.568;2023-04-06T02:49:01;7.47;;;4.15;;
25846;SDS011;13676;50.168;8.568;2023-04-06T02:51:27;8.77;;;4.57;;
25846;SDS011;13676;50.168;8.568;2023-04-06T02:53:52;7.30;;;4.32;;
25846;SDS011;13676;50.168;8.568;2023-04-06T02:56:17;6.47;;;4.05;;
25846;SDS011;13676;50.168;8.568;2023-04-06T02:58:43;6.28;;;3.97;;
25846;SDS011;13676;50.168;8.568;2023-04-06T03:01:08;5.97;;;3.72;;
25846;SDS011;13676;50.168;8.568;2023-04-06T03:03:34;6.43;;;3.80;;
25846;SDS011;13676;50.168;8.568;2023-04-06T03:05:59;5.97;;;4.18;;
25846;SDS011;13676;50.168;8.568;2023-04-06T03:08:25;6.20;;;3.55;;
25846;SDS011;13676;50.168;8.568;2023-04-06T03:10:50;8.43;;;3.95;;
25846;SDS011;13676;50.168;8.568;2023-04-06T03:13:16;6.57;;;4.60;;
25846;SDS011;13676;50.168;8.568;2023-04-06T03:15:41;7.03;;;4.28;;
25846;SDS011;13676;50.168;8.568;2023-04-06T03:18:06;6.22;;;3.88;;
25846;SDS011;13676;50.168;8.568;2023-04-06T03:20:32;7.30;;;4.47;;
25846;SDS011;13676;50.168;8.568;2023-04-06T03:22:57;7.38;;;4.70;;
25846;SDS011;13676;50.168;8.568;2023-04-06T03:25:23;6.65;;;4.20;;
25846;SDS011;13676;50.168;8.568;2023-04-06T03:27:48;7.10;;;4.65;;
25846;SDS011;13676;50.168;8.568;2023-04-06T03:30:14;5.00;;;3.53;;
25846;SDS011;13676;50.168;8.568;2023-04-06T03:32:41;10.02;;;4.78;;
25846;SDS011;13676;50.168;8.568;2023-04-06T03:35:07;6.25;;;3.47;;
25846;SDS011;13676;50.168;8.568;2023-04-06T03:37:33;5.57;;;4.18;;
25846;SDS011;13676;50.168;8.568;2023-04-06T03:39:58;6.47;;;4.30;;
25846;SDS011;13676;50.168;8.568;2023-04-06T03:42:23;5.90;;;4.20;;
25846;SDS011;13676;50.168;8.568;2023-04-06T03:44:49;6.60;;;4.22;;
25846;SDS011;13676;50.168;8.568;2023-04-06T03:47:14;7.75;;;4.10;;
25846;SDS011;13676;50.168;8.568;2023-04-06T03:49:40;10.50;;;4.50;;
25846;SDS011;13676;50.168;8.568;2023-04-06T03:52:05;11.77;;;4.80;;
25846;SDS011;13676;50.168;8.568;2023-04-06T03:54:30;7.85;;;4.75;;
25846;SDS011;13676;50.168;8.568;2023-04-06T03:56:56;6.68;;;4.90;;
25846;SDS011;13676;50.168;8.568;2023-04-06T03:59:21;6.90;;;4.70;;
25846;SDS011;13676;50.168;8.568;2023-04-06T04:01:46;7.43;;;4.85;;
25846;SDS011;13676;50.168;8.568;2023-04-06T04:04:12;9.05;;;5.18;;
25846;SDS011;13676;50.168;8.568;2023-04-06T04:06:37;7.15;;;5.22;;
25846;SDS011;13676;50.168;8.568;2023-04-06T04:09:03;8.90;;;4.93;;
25846;SDS011;13676;50.168;8.568;2023-04-06T04:11:28;7.80;;;4.93;;
25846;SDS011;13676;50.168;8.568;2023-04-06T04:13:53;9.60;;;4.72;;
25846;SDS011;13676;50.168;8.568;2023-04-06T04:16:19;6.65;;;4.30;;
25846;SDS011;13676;50.168;8.568;2023-04-06T04:18:44;6.40;;;4.05;;
25846;SDS011;13676;50.168;8.568;2023-04-06T04:21:12;7.25;;;4.50;;
25846;SDS011;13676;50.168;8.568;2023-04-06T04:23:37;6.63;;;4.00;;
25846;SDS011;13676;50.168;8.568;2023-04-06T04:26:02;7.93;;;4.95;;
25846;SDS011;13676;50.168;8.568;2023-04-06T04:28:28;5.80;;;4.47;;
25846;SDS011;13676;50.168;8.568;2023-04-06T04:30:53;10.50;;;4.97;;
25846;SDS011;13676;50.168;8.568;2023-04-06T04:33:19;11.52;;;4.63;;
25846;SDS011;13676;50.168;8.568;2023-04-06T04:35:44;7.20;;;4.47;;
25846;SDS011;13676;50.168;8.568;2023-04-06T04:38:10;5.18;;;3.83;;
25846;SDS011;13676;50.168;8.568;2023-04-06T04:40:35;7.65;;;5.00;;
25846;SDS011;13676;50.168;8.568;2023-04-06T04:43:01;7.53;;;4.63;;
25846;SDS011;13676;50.168;8.568;2023-04-06T04:45:26;8.63;;;4.97;;
25846;SDS011;13676;50.168;8.568;2023-04-06T04:47:51;9.73;;;4.72;;
25846;SDS011;13676;50.168;8.568;2023-04-06T04:50:17;8.32;;;4.45;;
25846;SDS011;13676;50.168;8.568;2023-04-06T04:52:42;6.25;;;4.22;;
25846;SDS011;13676;50.168;8.568;2023-04-06T04:55:07;7.85;;;4.97;;
25846;SDS011;13676;50.168;8.568;2023-04-06T04:57:33;8.68;;;4.25;;
25846;SDS011;13676;50.168;8.568;2023-04-06T04:59:58;5.03;;;4.00;;
25846;SDS011;13676;50.168;8.568;2023-04-06T05:02:24;9.38;;;4.35;;
25846;SDS011;13676;50.168;8.568;2023-04-06T05:04:49;5.95;;;4.15;;
25846;SDS011;13676;50.168;8.568;2023-04-06T05:07:15;5.57;;;3.65;;
25846;SDS011;13676;50.168;8.568;2023-04-06T05:09:40;4.85;;;3.90;;
25846;SDS011;13676;50.168;8.568;2023-04-06T05:12:06;7.68;;;3.97;;
25846;SDS011;13676;50.168;8.568;2023-04-06T05:14:31;5.63;;;4.22;;
25846;SDS011;13676;50.168;8.568;2023-04-06T05:16:57;6.50;;;4.20;;
25846;SDS011;13676;50.168;8.568;2023-04-06T05:19:22;9.98;;;4.18;;
25846;SDS011;13676;50.168;8.568;2023-04-06T05:21:47;5.53;;;3.80;;
25846;SDS011;13676;50.168;8.568;2023-04-06T05:24:13;8.60;;;4.57;;
25846;SDS011;13676;50.168;8.568;2023-04-06T05:26:38;6.93;;;4.55;;
25846;SDS011;13676;50.168;8.568;2023-04-06T05:29:04;7.88;;;4.75;;
25846;SDS011;13676;50.168;8.568;2023-04-06T05:31:30;9.60;;;4.72;;
25846;SDS011;13676;50.168;8.568;2023-04-06T05:33:56;7.80;;;4.53;;
25846;SDS011;13676;50.168;8.568;2023-04-06T05:36:21;7.05;;;4.30;;
25846;SDS011;13676;50.168;8.568;2023-04-06T05:38:47;8.60;;;4.43;;
25846;SDS011;13676;50.168;8.568;2023-04-06T05:41:12;7.68;;;4.82;;
25846;SDS011;13676;50.168;8.568;2023-04-06T05:43:37;6.78;;;4.50;;
25846;SDS011;13676;50.168;8.568;2023-04-06T05:46:03;7.28;;;4.82;;
25846;SDS011;13676;50.168;8.568;2023-04-06T05:48:29;6.28;;;4.15;;
25846;SDS011;13676;50.168;8.568;2023-04-06T05:50:54;6.43;;;4.10;;
25846;SDS011;13676;50.168;8.568;2023-04-06T05:53:20;11.85;;;5.57;;
25846;SDS011;13676;50.168;8.568;2023-04-06T05:55:46;9.23;;;4.78;;
25846;SDS011;13676;50.168;8.568;2023-04-06T05:58:11;12.07;;;5.80;;
25846;SDS011;13676;50.168;8.568;2023-04-06T06:00:37;12.88;;;6.18;;
25846;SDS011;13676;50.168;8.568;2023-04-06T06:03:02;12.95;;;6.00;;
25846;SDS011;13676;50.168;8.568;2023-04-06T06:05:31;12.13;;;6.90;;
25846;SDS011;13676;50.168;8.568;2023-04-06T06:07:56;13.98;;;6.63;;
25846;SDS011;13676;50.168;8.568;2023-04-06T06:10:21;10.88;;;5.85;;
25846;SDS011;13676;50.168;8.568;2023-04-06T06:12:47;12.48;;;6.45;;
25846;SDS011;13676;50.168;8.568;2023-04-06T06:15:12;9.85;;;6.25;;
25846;SDS011;13676;50.168;8.568;2023-04-06T06:17:38;9.48;;;6.10;;
25846;SDS011;13676;50.168;8.568;2023-04-06T06:20:05;9.98;;;5.93;;
25846;SDS011;13676;50.168;8.568;2023-04-06T06:22:31;9.80;;;6.05;;
25846;SDS011;13676;50.168;8.568;2023-04-06T06:24:57;10.20;;;6.18;;
25846;SDS011;13676;50.168;8.568;2023-04-06T06:27:22;9.90;;;5.68;;
25846;SDS011;13676;50.168;8.568;2023-04-06T06:29:48;8.70;;;5.60;;
25846;SDS011;13676;50.168;8.568;2023-04-06T06:32:13;7.32;;;4.72;;
25846;SDS011;13676;50.168;8.568;2023-04-06T06:34:39;10.65;;;6.85;;
25846;SDS011;13676;50.168;8.568;2023-04-06T06:37:05;11.88;;;5.90;;
25846;SDS011;13676;50.168;8.568;2023-04-06T06:39:31;8.35;;;5.13;;
25846;SDS011;13676;50.168;8.568;2023-04-06T06:41:56;9.32;;;5.35;;
25846;SDS011;13676;50.168;8.568;2023-04-06T06:44:22;13.65;;;6.75;;
25846;SDS011;13676;50.168;8.568;2023-04-06T06:46:47;12.70;;;6.70;;
25846;SDS011;13676;50.168;8.568;2023-04-06T06:49:12;13.98;;;5.72;;
25846;SDS011;13676;50.168;8.568;2023-04-06T06:51:39;12.27;;;7.30;;
25846;SDS011;13676;50.168;8.568;2023-04-06T06:54:04;18.95;;;7.20;;
25846;SDS011;13676;50.168;8.568;2023-04-06T06:56:30;11.68;;;5.88;;
25846;SDS011;13676;50.168;8.568;2023-04-06T06:58:55;11.50;;;7.25;;
25846;SDS011;13676;50.168;8.568;2023-04-06T07:01:21;15.63;;;7.40;;
25846;SDS011;13676;50.168;8.568;2023-04-06T07:03:46;11.85;;;6.50;;
25846;SDS011;13676;50.168;8.568;2023-04-06T07:06:11;11.55;;;6.78;;
25846;SDS011;13676;50.168;8.568;2023-04-06T07:08:37;12.10;;;7.03;;
25846;SDS011;13676;50.168;8.568;2023-04-06T07:11:02;12.27;;;6.20;;
25846;SDS011;13676;50.168;8.568;2023-04-06T07:13:28;9.57;;;6.63;;
25846;SDS011;13676;50.168;8.568;2023-04-06T07:15:53;13.80;;;7.07;;
25846;SDS011;13676;50.168;8.568;2023-04-06T07:18:19;10.85;;;6.40;;
25846;SDS011;13676;50.168;8.568;2023-04-06T07:20:44;10.27;;;6.15;;
25846;SDS011;13676;50.168;8.568;2023-04-06T07:23:10;9.90;;;5.88;;
25846;SDS011;13676;50.168;8.568;2023-04-06T07:25:36;11.13;;;7.45;;
25846;SDS011;13676;50.168;8.568;2023-04-06T07:28:02;9.48;;;6.70;;
25846;SDS011;13676;50.168;8.568;2023-04-06T07:30:27;15.95;;;8.10;;
25846;SDS011;13676;50.168;8.568;2023-04-06T07:32:54;10.45;;;6.47;;
25846;SDS011;13676;50.168;8.568;2023-04-06T07:35:20;9.50;;;6.80;;
25846;SDS011;13676;50.168;8.568;2023-04-06T07:37:46;13.57;;;7.38;;
25846;SDS011;13676;50.168;8.568;2023-04-06T07:40:12;10.80;;;6.55;;
25846;SDS011;13676;50.168;8.568;2023-04-06T07:42:37;9.68;;;7.20;;
25846;SDS011;13676;50.168;8.568;2023-04-06T07:45:03;11.05;;;6.82;;
25846;SDS011;13676;50.168;8.568;2023-04-06T07:47:28;13.80;;;7.78;;
25846;SDS011;13676;50.168;8.568;2023-04-06T07:49:54;11.70;;;7.35;;
25846;SDS011;13676;50.168;8.568;2023-04-06T07:52:21;12.05;;;8.15;;
25846;SDS011;13676;50.168;8.568;2023-04-06T07:54:46;11.80;;;8.02;;
25846;SDS011;13676;50.168;8.568;2023-04-06T07:57:13;12.68;;;7.65;;
25846;SDS011;13676;50.168;8.568;2023-04-06T07:59:38;12.57;;;8.00;;
25846;SDS011;13676;50.168;8.568;2023-04-06T08:02:04;10.95;;;8.10;;
25846;SDS011;13676;50.168;8.568;2023-04-06T08:04:30;11.27;;;7.25;;
25846;SDS011;13676;50.168;8.568;2023-04-06T08:06:55;18.38;;;8.80;;
25846;SDS011;13676;50.168;8.568;2023-04-06T08:09:20;12.55;;;8.10;;
25846;SDS011;13676;50.168;8.568;2023-04-06T08:11:46;13.35;;;8.93;;
25846;SDS011;13676;50.168;8.568;2023-04-06T08:14:13;12.27;;;8.25;;
25846;SDS011;13676;50.168;8.568;2023-04-06T08:16:40;14.70;;;9.10;;
25846;SDS011;13676;50.168;8.568;2023-04-06T08:19:05;14.27;;;8.70;;
25846;SDS011;13676;50.168;8.568;2023-04-06T08:21:34;12.88;;;8.93;;
25846;SDS011;13676;50.168;8.568;2023-04-06T08:24:00;12.18;;;7.72;;
25846;SDS011;13676;50.168;8.568;2023-04-06T08:26:25;11.93;;;7.82;;
25846;SDS011;13676;50.168;8.568;2023-04-06T08:28:51;18.10;;;8.32;;
25846;SDS011;13676;50.168;8.568;2023-04-06T08:31:16;16.42;;;9.43;;
25846;SDS011;13676;50.168;8.568;2023-04-06T08:33:41;10.93;;;8.02;;
25846;SDS011;13676;50.168;8.568;2023-04-06T08:36:08;17.40;;;8.55;;
25846;SDS011;13676;50.168;8.568;2023-04-06T08:38:35;12.70;;;8.40;;
25846;SDS011;13676;50.168;8.568;2023-04-06T08:41:05;12.80;;;8.73;;
25846;SDS011;13676;50.168;8.568;2023-04-06T08:43:32;11.57;;;8.43;;
25846;SDS011;13676;50.168;8.568;2023-04-06T08:45:58;14.88;;;8.20;;
25846;SDS011;13676;50.168;8.568;2023-04-06T08:48:24;11.25;;;7.68;;
25846;SDS011;13676;50.168;8.568;2023-04-06T08:50:50;17.00;;;9.35;;
25846;SDS011;13676;50.168;8.568;2023-04-06T08:53:16;15.88;;;8.65;;
25846;SDS011;13676;50.168;8.568;2023-04-06T08:55:44;14.85;;;8.13;;
25846;SDS011;13676;50.168;8.568;2023-04-06T08:58:10;13.82;;;8.93;;
25846;SDS011;13676;50.168;8.568;2023-04-06T09:00:37;12.05;;;8.88;;
25846;SDS011;13676;50.168;8.568;2023-04-06T09:03:03;13.10;;;8.85;;
25846;SDS011;13676;50.168;8.568;2023-04-06T09:05:30;14.70;;;9.32;;
25846;SDS011;13676;50.168;8.568;2023-04-06T09:07:55;11.77;;;7.80;;
25846;SDS011;13676;50.168;8.568;2023-04-06T09:10:21;13.52;;;8.25;;
25846;SDS011;13676;50.168;8.568;2023-04-06T09:12:48;11.95;;;8.55;;
25846;SDS011;13676;50.168;8.568;2023-04-06T09:15:21;11.93;;;8.73;;
25846;SDS011;13676;50.168;8.568;2023-04-06T09:17:46;15.93;;;7.25;;
25846;SDS011;13676;50.168;8.568;2023-04-06T09:20:12;14.63;;;8.95;;
25846;SDS011;13676;50.168;8.568;2023-04-06T09:22:38;13.32;;;9.10;;
25846;SDS011;13676;50.168;8.568;2023-04-06T09:25:08;13.80;;;8.68;;
25846;SDS011;13676;50.168;8.568;2023-04-06T09:27:38;11.38;;;7.50;;
25846;SDS011;13676;50.168;8.568;2023-04-06T09:32:30;15.00;;;8.25;;
25846;SDS011;13676;50.168;8.568;2023-04-06T09:35:05;11.63;;;8.27;;
25846;SDS011;13676;50.168;8.568;2023-04-06T09:37:31;17.38;;;8.95;;
25846;SDS011;13676;50.168;8.568;2023-04-06T09:40:04;10.70;;;8.10;;
25846;SDS011;13676;50.168;8.568;2023-04-06T09:42:30;15.00;;;8.93;;
25846;SDS011;13676;50.168;8.568;2023-04-06T09:44:56;13.55;;;8.40;;
25846;SDS011;13676;50.168;8.568;2023-04-06T09:47:21;11.88;;;8.18;;
25846;SDS011;13676;50.168;8.568;2023-04-06T09:49:48;14.45;;;8.40;;
25846;SDS011;13676;50.168;8.568;2023-04-06T09:52:15;13.23;;;9.40;;
25846;SDS011;13676;50.168;8.568;2023-04-06T09:54:42;12.85;;;8.45;;
25846;SDS011;13676;50.168;8.568;2023-04-06T09:57:18;15.90;;;9.90;;
25846;SDS011;13676;50.168;8.568;2023-04-06T10:07:59;16.38;;;10.60;;
25846;SDS011;13676;50.168;8.568;2023-04-06T10:10:29;15.65;;;8.00;;
25846;SDS011;13676;50.168;8.568;2023-04-06T10:12:55;12.93;;;8.30;;
25846;SDS011;13676;50.168;8.568;2023-04-06T10:15:21;18.10;;;9.40;;
25846;SDS011;13676;50.168;8.568;2023-04-06T10:17:47;12.25;;;8.07;;
25846;SDS011;13676;50.168;8.568;2023-04-06T10:20:56;15.55;;;8.30;;
25846;SDS011;13676;50.168;8.568;2023-04-06T10:25:57;13.73;;;8.05;;
25846;SDS011;13676;50.168;8.568;2023-04-06T10:28:24;16.48;;;9.77;;
25846;SDS011;13676;50.168;8.568;2023-04-06T10:30:56;14.70;;;8.48;;
25846;SDS011;13676;50.168;8.568;2023-04-06T10:33:22;14.93;;;8.52;;
25846;SDS011;13676;50.168;8.568;2023-04-06T10:35:48;16.33;;;9.07;;
25846;SDS011;13676;50.168;8.568;2023-04-06T10:38:13;14.38;;;7.13;;
25846;SDS011;13676;50.168;8.568;2023-04-06T10:40:40;14.65;;;9.48;;
25846;SDS011;13676;50.168;8.568;2023-04-06T10:45:37;16.70;;;9.93;;
25846;SDS011;13676;50.168;8.568;2023-04-06T10:48:13;12.18;;;8.65;;
25846;SDS011;13676;50.168;8.568;2023-04-06T10:50:40;17.50;;;9.45;;
25846;SDS011;13676;50.168;8.568;2023-04-06T10:53:06;13.60;;;9.07;;
25846;SDS011;13676;50.168;8.568;2023-04-06T10:55:33;17.20;;;10.00;;
25846;SDS011;13676;50.168;8.568;2023-04-06T10:57:59;14.50;;;8.65;;
25846;SDS011;13676;50.168;8.568;2023-04-06T11:00:24;18.95;;;11.50;;
25846;SDS011;13676;50.168;8.568;2023-04-06T11:02:50;17.92;;;9.60;;
25846;SDS011;13676;50.168;8.568;2023-04-06T11:05:15;14.23;;;9.77;;
25846;SDS011;13676;50.168;8.568;2023-04-06T11:07:41;13.68;;;9.23;;
25846;SDS011;13676;50.168;8.568;2023-04-06T11:10:07;15.07;;;9.52;;
25846;SDS011;13676;50.168;8.568;2023-04-06T11:12:33;12.98;;;8.73;;
25846;SDS011;13676;50.168;8.568;2023-04-06T11:15:00;17.13;;;11.30;;
25846;SDS011;13676;50.168;8.568;2023-04-06T11:17:34;14.07;;;9.13;;
25846;SDS011;13676;50.168;8.568;2023-04-06T11:20:01;15.48;;;9.57;;
25846;SDS011;13676;50.168;8.568;2023-04-06T11:22:27;14.27;;;9.02;;
25846;SDS011;13676;50.168;8.568;2023-04-06T11:25:04;17.25;;;9.65;;
25846;SDS011;13676;50.168;8.568;2023-04-06T11:27:30;14.75;;;10.10;;
25846;SDS011;13676;50.168;8.568;2023-04-06T11:29:57;23.27;;;12.63;;
25846;SDS011;13676;50.168;8.568;2023-04-06T11:32:22;15.23;;;9.98;;
25846;SDS011;13676;50.168;8.568;2023-04-06T11:34:49;19.48;;;10.77;;
25846;SDS011;13676;50.168;8.568;2023-04-06T11:37:14;19.08;;;9.50;;
25846;SDS011;13676;50.168;8.568;2023-04-06T11:39:43;20.25;;;10.43;;
25846;SDS011;13676;50.168;8.568;2023-04-06T11:42:11;15.95;;;9.60;;
25846;SDS011;13676;50.168;8.568;2023-04-06T11:44:42;17.17;;;9.25;;
25846;SDS011;13676;50.168;8.568;2023-04-06T11:47:10;18.55;;;9.88;;
25846;SDS011;13676;50.168;8.568;2023-04-06T11:49:37;17.65;;;9.93;;
25846;SDS011;13676;50.168;8.568;2023-04-06T11:52:13;13.57;;;8.02;;
25846;SDS011;13676;50.168;8.568;2023-04-06T11:54:43;20.63;;;10.55;;
25846;SDS011;13676;50.168;8.568;2023-04-06T11:57:08;16.30;;;9.60;;
25846;SDS011;13676;50.168;8.568;2023-04-06T11:59:34;16.23;;;9.27;;
25846;SDS011;13676;50.168;8.568;2023-04-06T12:02:03;18.33;;;9.88;;
25846;SDS011;13676;50.168;8.568;2023-04-06T12:04:29;16.05;;;9.63;;
25846;SDS011;13676;50.168;8.568;2023-04-06T12:06:55;14.75;;;8.82;;
25846;SDS011;13676;50.168;8.568;2023-04-06T12:09:20;17.15;;;10.32;;
25846;SDS011;13676;50.168;8.568;2023-04-06T12:11:46;16.58;;;9.10;;
25846;SDS011;13676;50.168;8.568;2023-04-06T12:14:12;15.30;;;10.10;;
25846;SDS011;13676;50.168;8.568;2023-04-06T12:16:37;17.30;;;9.65;;
25846;SDS011;13676;50.168;8.568;2023-04-06T12:19:03;16.65;;;9.48;;
25846;SDS011;13676;50.168;8.568;2023-04-06T12:21:28;16.80;;;9.32;;
25846;SDS011;13676;50.168;8.568;2023-04-06T12:23:55;21.30;;;10.55;;
25846;SDS011;13676;50.168;8.568;2023-04-06T12:26:21;17.67;;;9.25;;
25846;SDS011;13676;50.168;8.568;2023-04-06T12:28:46;16.27;;;8.48;;
25846;SDS011;13676;50.168;8.568;2023-04-06T12:31:15;17.27;;;10.43;;
25846;SDS011;13676;50.168;8.568;2023-04-06T12:33:42;14.00;;;9.57;;
25846;SDS011;13676;50.168;8.568;2023-04-06T12:36:14;17.92;;;9.75;;
25846;SDS011;13676;50.168;8.568;2023-04-06T12:38:40;15.77;;;9.70;;
25846;SDS011;13676;50.168;8.568;2023-04-06T12:41:10;13.18;;;8.73;;
25846;SDS011;13676;50.168;8.568;2023-04-06T12:43:36;13.07;;;7.78;;
25846;SDS011;13676;50.168;8.568;2023-04-06T12:46:01;15.27;;;9.55;;
25846;SDS011;13676;50.168;8.568;2023-04-06T12:48:27;15.27;;;8.73;;
25846;SDS011;13676;50.168;8.568;2023-04-06T12:50:59;15.15;;;9.90;;
25846;SDS011;13676;50.168;8.568;2023-04-06T12:53:26;13.25;;;9.07;;
25846;SDS011;13676;50.168;8.568;2023-04-06T12:55:52;13.13;;;8.52;;
25846;SDS011;13676;50.168;8.568;2023-04-06T13:00:45;15.02;;;8.40;;
25846;SDS011;13676;50.168;8.568;2023-04-06T13:03:11;14.73;;;8.10;;
25846;SDS011;13676;50.168;8.568;2023-04-06T13:05:43;14.93;;;6.55;;
25846;SDS011;13676;50.168;8.568;2023-04-06T13:08:09;14.32;;;7.75;;
25846;SDS011;13676;50.168;8.568;2023-04-06T13:10:35;10.25;;;6.93;;
25846;SDS011;13676;50.168;8.568;2023-04-06T13:13:00;12.13;;;7.93;;
25846;SDS011;13676;50.168;8.568;2023-04-06T13:15:25;10.00;;;6.60;;
25846;SDS011;13676;50.168;8.568;2023-04-06T13:17:51;12.32;;;7.90;;
25846;SDS011;13676;50.168;8.568;2023-04-06T13:20:16;8.82;;;6.28;;
25846;SDS011;13676;50.168;8.568;2023-04-06T13:22:42;10.68;;;7.07;;
25846;SDS011;13676;50.168;8.568;2023-04-06T13:25:07;12.85;;;8.75;;
25846;SDS011;13676;50.168;8.568;2023-04-06T13:27:33;12.02;;;8.10;;
25846;SDS011;13676;50.168;8.568;2023-04-06T13:30:00;12.57;;;8.55;;
25846;SDS011;13676;50.168;8.568;2023-04-06T13:32:26;13.05;;;7.78;;
25846;SDS011;13676;50.168;8.568;2023-04-06T13:34:54;11.45;;;7.95;;
25846;SDS011;13676;50.168;8.568;2023-04-06T13:37:20;12.13;;;7.15;;
25846;SDS011;13676;50.168;8.568;2023-04-06T13:39:45;11.32;;;6.82;;
25846;SDS011;13676;50.168;8.568;2023-04-06T13:42:11;11.02;;;7.47;;
25846;SDS011;13676;50.168;8.568;2023-04-06T13:44:36;11.43;;;7.30;;
25846;SDS011;13676;50.168;8.568;2023-04-06T13:47:01;12.95;;;7.05;;
25846;SDS011;13676;50.168;8.568;2023-04-06T13:49:27;12.18;;;7.20;;
25846;SDS011;13676;50.168;8.568;2023-04-06T13:51:52;10.05;;;6.93;;
25846;SDS011;13676;50.168;8.568;2023-04-06T13:54:17;14.38;;;8.98;;
25846;SDS011;13676;50.168;8.568;2023-04-06T13:56:44;9.53;;;6.83;;
25846;SDS011;13676;50.168;8.568;2023-04-06T13:59:10;8.77;;;6.50;;
25846;SDS011;13676;50.168;8.568;2023-04-06T14:01:35;13.50;;;7.80;;
25846;SDS011;13676;50.168;8.568;2023-04-06T14:04:05;11.27;;;7.80;;
25846;SDS011;13676;50.168;8.568;2023-04-06T14:06:30;10.15;;;7.35;;
25846;SDS011;13676;50.168;8.568;2023-04-06T14:08:55;12.38;;;8.63;;
25846;SDS011;13676;50.168;8.568;2023-04-06T14:11:21;11.95;;;7.97;;
25846;SDS011;13676;50.168;8.568;2023-04-06T14:13:47;13.05;;;9.32;;
25846;SDS011;13676;50.168;8.568;2023-04-06T14:16:12;12.13;;;7.25;;
25846;SDS011;13676;50.168;8.568;2023-04-06T14:18:44;10.13;;;6.35;;
25846;SDS011;13676;50.168;8.568;2023-04-06T14:21:10;9.95;;;6.35;;
25846;SDS011;13676;50.168;8.568;2023-04-06T14:23:35;8.57;;;5.80;;
25846;SDS011;13676;50.168;8.568;2023-04-06T14:26:05;12.13;;;6.80;;
25846;SDS011;13676;50.168;8.568;2023-04-06T14:28:33;14.55;;;6.97;;
25846;SDS011;13676;50.168;8.568;2023-04-06T14:30:59;9.93;;;5.80;;
25846;SDS011;13676;50.168;8.568;2023-04-06T14:33:26;9.07;;;5.47;;
25846;SDS011;13676;50.168;8.568;2023-04-06T14:35:52;9.67;;;6.10;;
25846;SDS011;13676;50.168;8.568;2023-04-06T14:38:17;10.80;;;5.50;;
25846;SDS011;13676;50.168;8.568;2023-04-06T14:40:42;8.95;;;5.20;;
25846;SDS011;13676;50.168;8.568;2023-04-06T14:43:08;9.50;;;6.22;;
25846;SDS011;13676;50.168;8.568;2023-04-06T14:45:33;12.13;;;6.05;;
25846;SDS011;13676;50.168;8.568;2023-04-06T14:48:00;14.02;;;6.00;;
25846;SDS011;13676;50.168;8.568;2023-04-06T14:50:25;9.80;;;5.72;;
25846;SDS011;13676;50.168;8.568;2023-04-06T14:52:51;10.80;;;5.88;;